Time;durP1;ratioP1;P1;durP2;ratioP2;P2;SDS_P1;SDS_P2;PMS_P1;PMS_P2;Temp;Humidity;BMP_temperature;BMP_pressure;BME280_temperature;BME280_humidity;BME280_pressure;Samples;Min_cycle;Max_cycle;Signal;HPM_P1;HPM_P2
2022/05/23 00:00:45;;;;;;;5.65;3.58;;;;;;;10.84;100.00;98848.91;1744404;82;21178;-77
2022/05/23 00:03:51;;;;;;;2.98;2.58;;;;;;;10.87;100.00;98839.75;1743828;82;21208;-77
2022/05/23 00:06:58;;;;;;;3.00;2.70;;;;;;;10.92;100.00;98842.69;1743375;81;21524;-77
2022/05/23 00:10:05;;;;;;;2.45;2.25;;;;;;;10.97;100.00;98846.98;1744489;82;21196;-77
2022/05/23 00:13:11;;;;;;;4.95;1.95;;;;;;;11.02;100.00;98845.50;1743211;82;21217;-77
2022/05/23 00:16:16;;;;;;;3.35;2.55;;;;;;;11.04;100.00;98844.22;1743099;82;21731;-77
2022/05/23 00:19:24;;;;;;;3.87;2.20;;;;;;;11.09;100.00;98858.63;1744646;82;21181;-77
2022/05/23 00:22:31;;;;;;;2.00;1.80;;;;;;;11.13;100.00;98861.25;1744420;82;21248;-77
2022/05/23 00:25:38;;;;;;;4.67;2.35;;;;;;;11.16;100.00;98861.66;1744606;82;21236;-77
2022/05/23 00:28:46;;;;;;;2.25;1.98;;;;;;;11.19;100.00;98860.38;1743686;82;21762;-77
2022/05/23 00:35:18;;;;;;;2.75;1.90;;;;;;;11.27;100.00;98877.94;1744829;82;21166;-77
2022/05/23 00:38:23;;;;;;;5.87;2.00;;;;;;;11.31;100.00;98884.66;1747478;82;21196;-77
2022/05/23 00:45:15;;;;;;;3.20;2.17;;;;;;;11.37;100.00;98897.48;1747544;82;21168;-77
2022/05/23 00:48:22;;;;;;;3.10;1.87;;;;;;;11.41;100.00;98900.10;1747586;82;21220;-77
2022/05/23 00:51:28;;;;;;;3.47;2.35;;;;;;;11.45;100.00;98910.10;1745381;82;21192;-77
2022/05/23 00:54:36;;;;;;;3.02;2.45;;;;;;;11.45;100.00;98905.47;1745509;81;21185;-77
2022/05/23 00:57:44;;;;;;;2.58;2.17;;;;;;;11.44;100.00;98902.95;1744259;82;21781;-77
2022/05/23 01:00:50;;;;;;;4.17;3.35;;;;;;;11.43;100.00;98906.22;1747812;82;21754;-77
2022/05/23 01:03:55;;;;;;;6.12;2.52;;;;;;;11.41;100.00;98906.11;1748091;82;21208;-77
2022/05/23 01:06:59;;;;;;;4.85;3.22;;;;;;;11.38;100.00;98904.63;1746433;80;21869;-76
2022/05/23 01:10:06;;;;;;;6.92;3.37;;;;;;;11.36;100.00;98905.39;1747638;82;21208;-77
2022/05/23 01:13:12;;;;;;;2.80;2.50;;;;;;;11.35;100.00;98905.08;1747694;82;21232;-82
2022/05/23 01:16:18;;;;;;;2.25;1.80;;;;;;;11.35;100.00;98916.56;1747644;82;21189;-77
2022/05/23 01:19:24;;;;;;;1.60;1.50;;;;;;;11.30;100.00;98915.00;1747733;82;21173;-77
2022/05/23 01:23:03;;;;;;;2.27;1.35;;;;;;;11.19;100.00;98915.11;1747738;82;21185;-76
2022/05/23 01:26:07;;;;;;;4.42;1.30;;;;;;;11.05;100.00;98923.88;1728851;82;21209;-77
2022/05/23 01:29:21;;;;;;;2.92;1.75;;;;;;;10.89;100.00;98928.44;1746117;81;21161;-77
2022/05/23 01:32:28;;;;;;;2.92;1.92;;;;;;;10.67;99.14;98923.70;1747602;82;21813;-77
2022/05/23 01:35:34;;;;;;;3.65;1.75;;;;;;;10.38;96.33;98931.26;1746665;82;21228;-77
2022/05/23 01:38:39;;;;;;;4.58;2.17;;;;;;;10.15;96.07;98938.96;1743694;82;21220;-77
2022/05/23 01:41:48;;;;;;;3.52;2.10;;;;;;;9.91;96.10;98944.47;1743398;82;21511;-77
2022/05/23 01:44:53;;;;;;;5.12;2.42;;;;;;;9.73;96.31;98958.16;1744516;82;21157;-77
2022/05/23 01:48:00;;;;;;;5.62;3.00;;;;;;;9.57;96.40;98946.76;1744762;80;21220;-77
2022/05/23 01:51:06;;;;;;;5.83;2.92;;;;;;;9.39;96.81;98958.21;1692991;83;21172;-77
2022/05/23 01:54:15;;;;;;;3.72;2.85;;;;;;;9.26;97.40;98949.42;1725498;82;21706;-77
2022/05/23 01:57:20;;;;;;;4.22;2.85;;;;;;;9.17;97.91;98956.08;1710118;84;21197;-77
2022/05/23 02:03:52;;;;;;;5.97;3.33;;;;;;;9.02;98.87;98968.98;1686546;83;21209;-77
2022/05/23 02:07:03;;;;;;;4.83;3.65;;;;;;;8.95;99.34;98974.41;1748781;81;21228;-77
2022/05/23 02:10:09;;;;;;;4.05;3.37;;;;;;;8.90;99.78;98975.00;1746167;82;21188;-77
2022/05/23 02:13:10;;;;;;;4.22;3.27;;;;;;;8.84;100.00;98966.22;1747502;82;21188;-77
2022/05/23 02:16:03;;;;;;;11.73;4.65;;;;;;;8.78;100.00;98963.45;1747674;82;21244;-77
2022/05/23 02:18:51;;;;;;;8.60;5.17;;;;;;;8.74;100.00;98967.09;1747992;80;21245;-77
2022/05/23 02:21:42;;;;;;;6.70;4.35;;;;;;;8.74;100.00;98968.98;1755637;81;21255;-77
2022/05/23 02:24:28;;;;;;;9.63;4.12;;;;;;;8.85;100.00;98964.37;1749724;81;21173;-77
2022/05/23 02:27:20;;;;;;;8.88;5.05;;;;;;;9.01;100.00;98965.95;1737748;82;21220;-77
2022/05/23 02:30:08;;;;;;;9.00;4.00;;;;;;;9.17;100.00;98977.41;1686729;82;21528;-77
2022/05/23 02:33:01;;;;;;;6.20;3.92;;;;;;;9.47;100.00;98979.89;1691904;85;21188;-77
2022/05/23 02:35:48;;;;;;;4.20;3.05;;;;;;;9.81;98.70;98991.28;1688960;85;21530;-77
2022/05/23 02:38:53;;;;;;;8.68;2.95;;;;;;;10.21;97.37;98995.02;1721076;83;21215;-77
2022/05/23 02:42:01;;;;;;;6.05;2.40;;;;;;;10.64;93.93;99006.17;1746960;80;21291;-77
2022/05/23 02:45:06;;;;;;;2.67;2.22;;;;;;;10.92;90.67;99006.83;1745775;82;21193;-77
2022/05/23 02:48:13;;;;;;;4.42;2.00;;;;;;;11.16;88.49;99009.45;1746452;81;21192;-77
2022/05/23 02:51:18;;;;;;;8.40;2.27;;;;;;;11.38;87.36;99013.30;1746360;80;21888;-77
2022/05/23 02:54:26;;;;;;;1.90;1.55;;;;;;;11.71;85.40;99007.75;1713831;82;21228;-77
2022/05/23 02:57:32;;;;;;;2.40;1.65;;;;;;;12.04;83.06;99009.03;1735250;82;21205;-77
2022/05/23 03:00:41;;;;;;;4.67;1.77;;;;;;;12.28;81.40;99005.56;1713091;82;21249;-77
2022/05/23 03:03:49;;;;;;;4.25;1.52;;;;;;;12.48;79.50;99005.44;1711834;82;21190;-77
2022/05/23 03:06:57;;;;;;;3.77;1.55;;;;;;;12.62;77.96;99022.66;1695896;83;21215;-76
2022/05/23 03:10:04;;;;;;;3.15;1.77;;;;;;;12.63;77.18;99032.56;1686617;84;21177;-77
2022/05/23 03:13:10;;;;;;;5.40;2.15;;;;;;;12.52;75.86;99036.86;1713496;83;21741;-77
2022/05/23 03:16:18;;;;;;;5.17;2.30;;;;;;;12.39;76.41;99048.43;1722145;83;21212;-77
2022/05/23 03:19:23;;;;;;;6.83;1.65;;;;;;;12.39;76.22;99053.38;1721599;83;21204;-77
2022/05/23 03:29:17;;;;;;;3.33;1.60;;;;;;;12.50;74.63;99051.84;1670346;85;21228;-77
2022/05/23 03:32:23;;;;;;;5.75;2.08;;;;;;;12.47;74.08;99054.50;1684181;85;21765;-77
2022/05/23 03:35:29;;;;;;;1.95;1.55;;;;;;;12.55;74.43;99046.53;1697955;82;21190;-77
2022/05/23 03:38:33;;;;;;;1.65;1.42;;;;;;;12.62;73.49;99050.63;1713476;83;21206;-77
2022/05/23 03:41:32;;;;;;;2.02;1.70;;;;;;;12.62;73.21;99056.11;1714306;83;21163;-77
2022/05/23 03:44:39;;;;;;;6.97;1.70;;;;;;;12.54;72.38;99064.89;1711046;83;21840;-77
2022/05/23 03:47:46;;;;;;;1.80;1.57;;;;;;;12.40;72.66;99060.54;1685280;85;21821;-77
2022/05/23 03:50:52;;;;;;;2.50;1.75;;;;;;;12.32;73.68;99054.45;1693458;83;21525;-77
2022/05/23 03:53:57;;;;;;;3.15;1.80;;;;;;;12.34;73.22;99062.80;1683780;85;21242;-77
2022/05/23 03:57:10;;;;;;;2.17;1.72;;;;;;;12.34;73.41;99053.20;1684956;85;21178;-78
2022/05/23 04:00:17;;;;;;;3.55;1.90;;;;;;;12.36;73.37;99062.03;1683429;83;21750;-78
2022/05/23 04:03:25;;;;;;;3.55;1.65;;;;;;;12.34;73.75;99069.64;1704412;83;21216;-77
2022/05/23 04:06:32;;;;;;;3.92;1.70;;;;;;;12.33;73.84;99070.71;1705653;82;21221;-77
2022/05/23 04:09:37;;;;;;;2.40;1.50;;;;;;;12.35;73.98;99085.03;1706949;83;21159;-77
2022/05/23 04:12:46;;;;;;;7.90;1.72;;;;;;;12.34;73.09;99093.48;1702915;83;21193;-77
2022/05/23 04:15:52;;;;;;;3.70;1.65;;;;;;;12.31;72.54;99092.00;1709210;83;21794;-77
2022/05/23 04:18:57;;;;;;;2.80;1.57;;;;;;;12.30;72.38;99093.60;1698592;82;21253;-79
2022/05/23 04:22:04;;;;;;;2.17;1.77;;;;;;;12.32;72.48;99096.95;1701269;82;21149;-77
2022/05/23 04:25:13;;;;;;;3.60;1.80;;;;;;;12.31;71.41;99098.02;1695613;83;21825;-77
2022/05/23 04:28:20;;;;;;;4.95;1.90;;;;;;;12.30;71.76;99095.81;1708285;82;21572;-77
2022/05/23 04:31:26;;;;;;;3.27;1.85;;;;;;;12.34;71.78;99094.33;1698104;83;21630;-77
2022/05/23 04:38:07;;;;;;;6.03;1.65;;;;;;;12.64;71.26;99101.98;1701026;83;21708;-77
2022/05/23 04:41:12;;;;;;;1.47;1.30;;;;;;;12.77;71.10;99096.43;1704320;83;21165;-77
2022/05/23 04:44:21;;;;;;;3.02;1.65;;;;;;;12.90;70.96;99101.84;1709563;82;21169;-77
2022/05/23 04:50:49;;;;;;;1.35;1.25;;;;;;;13.16;69.11;99099.97;1710327;83;21194;-77
2022/05/23 04:53:59;;;;;;;2.62;1.37;;;;;;;13.23;68.75;99110.42;1701088;82;21220;-77
2022/05/23 04:57:06;;;;;;;2.02;1.40;;;;;;;13.29;67.60;99114.47;1699587;83;21215;-77
2022/05/23 05:00:18;;;;;;;4.50;1.30;;;;;;;13.38;67.95;99115.05;1700008;83;21750;-78
2022/05/23 05:03:29;;;;;;;1.17;1.00;;;;;;;13.57;67.18;99117.85;1702690;83;21209;-77
2022/05/23 05:06:34;;;;;;;1.47;1.12;;;;;;;13.77;66.94;99117.13;1693125;82;21189;-83
2022/05/23 05:09:41;;;;;;;3.25;1.07;;;;;;;13.96;65.68;99118.00;1677805;85;21182;-83
2022/05/23 05:12:47;;;;;;;1.98;1.10;;;;;;;14.04;65.22;99122.67;1744894;82;21292;-83
2022/05/23 05:15:53;;;;;;;1.70;1.35;;;;;;;14.07;63.61;99114.52;1745989;82;21200;-83
2022/05/23 05:19:03;;;;;;;3.60;1.20;;;;;;;14.04;64.36;99125.42;1736937;80;21260;-83
2022/05/23 05:22:18;;;;;;;5.95;1.30;;;;;;;14.11;64.35;99123.13;1734920;80;21228;-83
2022/05/23 05:25:31;;;;;;;7.42;1.20;;;;;;;14.20;64.40;99123.97;1707649;82;21208;-83
2022/05/23 05:28:43;;;;;;;1.37;1.12;;;;;;;14.32;63.35;99129.56;1744799;82;22518;-83
2022/05/23 05:32:04;;;;;;;1.65;1.00;;;;;;;14.40;62.54;99127.89;1739003;80;21193;-83
2022/05/23 05:35:13;;;;;;;2.30;1.30;;;;;;;14.44;62.97;99127.71;1737485;80;21256;-83
2022/05/23 05:38:31;;;;;;;2.72;1.30;;;;;;;14.47;61.63;99125.89;1737732;80;21224;-83
2022/05/23 05:42:03;;;;;;;2.12;1.10;;;;;;;14.55;61.33;99125.61;1735593;81;21188;-77
2022/05/23 05:45:17;;;;;;;2.62;1.17;;;;;;;14.65;61.53;99128.36;1740341;80;21149;-77
2022/05/23 05:48:24;;;;;;;1.55;1.10;;;;;;;14.82;61.02;99125.28;1704091;82;21236;-76
2022/05/23 05:51:30;;;;;;;1.62;1.32;;;;;;;14.96;58.81;99128.16;1696033;82;21226;-77
2022/05/23 05:54:41;;;;;;;1.95;1.00;;;;;;;15.01;58.01;99127.45;1699834;82;21171;-77
2022/05/23 05:57:47;;;;;;;2.87;1.05;;;;;;;15.03;58.57;99129.42;1706237;82;21213;-77
2022/05/23 06:00:53;;;;;;;1.70;1.05;;;;;;;15.15;58.06;99126.69;1707582;81;21181;-77
2022/05/23 06:03:58;;;;;;;2.22;1.25;;;;;;;15.30;57.31;99122.45;1730887;80;21216;-77
2022/05/23 06:14:06;;;;;;;2.27;1.20;;;;;;;15.62;55.26;99111.64;1726925;80;21751;-77
2022/05/23 06:17:15;;;;;;;3.67;1.00;;;;;;;15.67;56.18;99117.34;1706154;82;21813;-78
2022/05/23 06:20:20;;;;;;;5.17;1.05;;;;;;;15.93;56.17;99111.88;1716508;82;21193;-77
2022/05/23 06:23:25;;;;;;;1.87;1.00;;;;;;;16.22;54.10;99108.67;1713890;81;21192;-77
2022/05/23 06:26:33;;;;;;;1.60;0.95;;;;;;;16.42;52.18;99124.31;1744340;81;21228;-77
2022/05/23 06:29:39;;;;;;;2.52;1.30;;;;;;;16.33;51.82;99122.46;1726057;82;21753;-78
2022/05/23 06:32:50;;;;;;;3.27;1.10;;;;;;;16.28;50.47;99122.89;1728910;82;21252;-77
2022/05/23 06:36:06;;;;;;;3.25;1.22;;;;;;;16.22;51.00;99130.19;1712289;82;21811;-77
2022/05/23 06:39:13;;;;;;;8.03;1.65;;;;;;;16.11;51.70;99122.78;1710937;81;21236;-77
2022/05/23 06:42:19;;;;;;;3.85;1.32;;;;;;;16.09;51.75;99121.66;1702259;81;21205;-77
2022/05/23 06:45:41;;;;;;;2.37;1.25;;;;;;;16.13;52.89;99125.28;1703533;82;21188;-77
2022/05/23 06:49:00;;;;;;;4.00;1.25;;;;;;;16.29;51.71;99128.70;1656849;81;21522;-77
2022/05/23 06:52:09;;;;;;;8.33;1.37;;;;;;;16.41;51.88;99128.67;1737063;82;21208;-77
2022/05/23 06:55:34;;;;;;;4.70;1.27;;;;;;;16.52;52.10;99129.20;1734247;80;21149;-77
2022/05/23 06:58:39;;;;;;;1.98;1.10;;;;;;;16.64;50.86;99118.12;1676100;83;21224;-77
2022/05/23 07:01:49;;;;;;;2.92;1.40;;;;;;;16.68;51.70;99125.66;1691086;83;21184;-77
2022/05/23 07:14:35;;;;;;;3.92;1.30;;;;;;;16.98;50.94;99129.59;1742322;82;21185;-77
2022/05/23 07:17:28;;;;;;;1.75;0.93;;;;;;;17.19;52.22;99142.44;1747358;80;21213;-83
2022/05/23 07:20:37;;;;;;;2.47;1.00;;;;;;;17.32;50.83;99140.20;1706808;82;21195;-83
2022/05/23 07:23:53;;;;;;;2.10;0.88;;;;;;;17.48;50.71;99149.60;1709834;81;21238;-77
2022/05/23 07:27:03;;;;;;;2.10;1.40;;;;;;;17.61;50.13;99143.75;1670846;83;21185;-83
2022/05/23 07:30:09;;;;;;;3.55;1.27;;;;;;;17.70;49.79;99148.88;1703082;82;21744;-77
2022/05/23 07:33:09;;;;;;;1.55;0.88;;;;;;;17.86;48.32;99146.13;1700182;83;21214;-78
2022/05/23 07:36:18;;;;;;;1.75;0.75;;;;;;;17.93;48.06;99157.04;1700603;83;21485;-78
2022/05/23 07:39:08;;;;;;;4.55;1.35;;;;;;;17.83;47.11;99163.25;1702361;82;21164;-78
2022/05/23 07:42:03;;;;;;;3.55;1.50;;;;;;;17.77;46.87;99158.70;1697578;83;21769;-78
2022/05/23 07:44:50;;;;;;;2.52;1.10;;;;;;;17.85;45.83;99163.82;1699573;81;21268;-78
2022/05/23 07:47:42;;;;;;;3.77;1.42;;;;;;;17.90;47.45;99167.22;1701337;82;21242;-78
2022/05/23 07:50:55;;;;;;;2.65;1.12;;;;;;;17.91;46.67;99170.81;1712239;82;21774;-78
2022/05/23 08:00:48;;;;;;;3.77;1.02;;;;;;;18.07;45.28;99176.36;1720418;81;21204;-78
2022/05/23 08:03:54;;;;;;;1.75;1.10;;;;;;;18.04;44.30;99168.55;1720553;81;21866;-76
2022/05/23 08:07:02;;;;;;;2.33;1.30;;;;;;;18.09;44.67;99166.41;1711624;81;21201;-77
2022/05/23 08:10:08;;;;;;;2.47;1.10;;;;;;;18.13;44.96;99175.88;1710947;82;21208;-77
2022/05/23 08:13:14;;;;;;;2.45;1.47;;;;;;;18.01;44.40;99161.30;1713499;82;21192;-77
2022/05/23 08:16:20;;;;;;;1.92;1.17;;;;;;;17.81;44.04;99163.19;1715555;82;21182;-77
2022/05/23 08:19:29;;;;;;;2.75;1.30;;;;;;;17.60;44.65;99153.14;1726737;82;21181;-83
2022/05/23 08:22:51;;;;;;;2.40;1.30;;;;;;;17.51;45.46;99156.57;1722991;82;21259;-83
2022/05/23 08:25:58;;;;;;;5.20;1.50;;;;;;;17.44;45.34;99154.50;1706226;82;21204;-83
2022/05/23 08:29:06;;;;;;;8.58;1.42;;;;;;;17.26;45.44;99153.62;1713952;82;21253;-83
2022/05/23 08:32:07;;;;;;;2.33;1.40;;;;;;;17.09;47.04;99154.14;1720205;82;21287;-77
2022/05/23 08:35:24;;;;;;;3.92;1.25;;;;;;;17.05;47.64;99149.64;1716856;81;21162;-77
2022/05/23 08:38:28;;;;;;;3.00;0.93;;;;;;;17.18;47.49;99144.91;1717735;82;21189;-78
2022/05/23 08:41:41;;;;;;;3.67;1.25;;;;;;;17.29;46.14;99150.91;1677132;85;21756;-78
2022/05/23 08:45:15;;;;;;;1.65;1.30;;;;;;;17.29;46.57;99153.13;1669118;85;21515;-78
2022/05/23 08:48:51;;;;;;;4.08;1.20;;;;;;;17.25;42.93;99151.11;1738363;81;21160;-78
2022/05/23 08:52:22;;;;;;;2.35;1.10;;;;;;;17.25;42.93;99151.11;1747502;80;21727;-78
2022/05/23 08:55:46;;;;;;;6.08;1.42;;;;;;;17.35;44.45;99168.71;1752238;80;21177;-78
2022/05/23 08:59:02;;;;;;;2.98;1.15;;;;;;;17.30;42.15;99157.56;1738198;81;21829;-78
2022/05/23 09:02:11;;;;;;;2.60;1.50;;;;;;;17.25;41.32;99169.08;1750634;81;21283;-78
2022/05/23 09:05:34;;;;;;;9.07;1.40;;;;;;;17.18;41.89;99167.86;1748264;80;21204;-78
2022/05/23 09:08:48;;;;;;;2.45;1.10;;;;;;;17.08;43.62;99167.66;1745352;81;21204;-78
2022/05/23 09:11:54;;;;;;;3.98;1.52;;;;;;;17.11;41.78;99167.15;1721769;81;21155;-78
2022/05/23 09:15:02;;;;;;;1.35;1.12;;;;;;;17.30;42.59;99157.56;1720449;81;21307;-78
2022/05/23 09:18:13;;;;;;;2.05;1.25;;;;;;;17.66;42.58;99167.06;1714727;81;21487;-78
2022/05/23 09:21:19;;;;;;;2.95;1.35;;;;;;;17.66;41.20;99163.74;1709771;83;21212;-83
2022/05/23 09:24:26;;;;;;;6.53;1.60;;;;;;;17.78;41.56;99158.98;1726434;82;21200;-83
2022/05/23 09:28:15;;;;;;;2.25;1.32;;;;;;;17.84;41.15;99162.16;1684124;83;21204;-84
2022/05/23 09:31:44;;;;;;;5.92;1.90;;;;;;;17.92;41.20;99162.25;1720340;81;21161;-84
2022/05/23 09:35:00;;;;;;;3.60;1.37;;;;;;;18.02;41.04;99159.67;1716404;81;21234;-84
2022/05/23 09:38:36;;;;;;;1.12;1.02;;;;;;;18.11;39.04;99169.75;1714253;81;21217;-83
2022/05/23 09:49:18;;;;;;;5.45;1.85;;;;;;;17.79;41.92;99177.28;1722369;81;21165;-83
2022/05/23 09:52:42;;;;;;;2.50;1.20;;;;;;;17.97;40.42;99171.19;1721964;81;21180;-83
2022/05/23 09:55:47;;;;;;;3.80;1.45;;;;;;;18.08;39.63;99170.27;1717941;83;21177;-83
2022/05/23 09:58:53;;;;;;;4.83;1.55;;;;;;;18.24;39.38;99174.10;1720975;80;21188;-84
2022/05/23 10:02:00;;;;;;;3.50;1.42;;;;;;;18.32;38.15;99175.89;1723932;81;21879;-84
2022/05/23 10:05:06;;;;;;;5.28;1.30;;;;;;;18.43;37.65;99171.88;1720606;81;21160;-84
2022/05/23 10:08:38;;;;;;;4.17;1.60;;;;;;;18.53;35.61;99160.40;1720661;81;21195;-84
2022/05/23 10:11:48;;;;;;;5.47;1.20;;;;;;;18.56;34.77;99165.44;1724552;81;21168;-84
2022/05/23 10:15:01;;;;;;;2.80;1.47;;;;;;;18.45;36.29;99169.16;1712237;81;21176;-84
2022/05/23 10:18:15;;;;;;;3.85;1.20;;;;;;;18.40;37.94;99169.09;1719053;81;21195;-83
2022/05/23 10:21:47;;;;;;;10.25;1.57;;;;;;;18.52;37.36;99167.59;1725256;83;21214;-83
2022/05/23 10:25:10;;;;;;;5.05;1.45;;;;;;;18.48;36.76;99167.25;1722943;83;21273;-83
2022/05/23 10:28:19;;;;;;;4.28;1.20;;;;;;;18.58;37.48;99166.55;1718156;81;21235;-83
2022/05/23 10:31:35;;;;;;;4.12;1.67;;;;;;;18.74;37.29;99173.18;1720066;83;21765;-78
2022/05/23 10:34:52;;;;;;;2.40;1.57;;;;;;;18.77;37.01;99167.11;1714840;81;21644;-83
2022/05/23 10:42:08;;;;;;;6.67;1.40;;;;;;;18.81;37.20;99161.34;1702833;81;21192;-83
2022/05/23 10:45:37;;;;;;;2.10;1.12;;;;;;;18.67;37.53;99164.18;1696054;83;21188;-84
2022/05/23 10:49:15;;;;;;;2.58;1.60;;;;;;;18.65;37.68;99161.67;1721124;81;21192;-84
2022/05/23 10:52:49;;;;;;;3.87;1.70;;;;;;;18.81;37.05;99165.50;1710589;82;21192;-84
2022/05/23 10:56:15;;;;;;;5.28;1.72;;;;;;;19.02;36.54;99160.52;1715096;83;21200;-84
2022/05/23 10:59:40;;;;;;;3.22;1.55;;;;;;;19.17;35.60;99163.17;1746068;80;21200;-83
2022/05/23 11:03:18;;;;;;;5.08;1.60;;;;;;;19.20;35.46;99152.41;1731042;82;21215;-84
2022/05/23 11:06:42;;;;;;;5.50;1.70;;;;;;;19.28;35.21;99159.39;1738527;82;21196;-83
2022/05/23 11:10:00;;;;;;;4.50;1.42;;;;;;;19.39;35.29;99166.19;1735074;80;21200;-83
2022/05/23 11:13:31;;;;;;;6.92;1.47;;;;;;;19.46;35.90;99165.13;1732005;80;21733;-83
2022/05/23 11:16:56;;;;;;;2.83;1.47;;;;;;;19.47;35.31;99162.08;1740272;80;21228;-83
2022/05/23 11:20:29;;;;;;;2.83;1.70;;;;;;;19.53;35.81;99176.31;1749057;80;21464;-83
2022/05/23 11:23:55;;;;;;;3.77;1.55;;;;;;;19.55;34.64;99165.78;1745885;80;21260;-83
2022/05/23 11:33:58;;;;;;;4.45;1.95;;;;;;;19.63;33.06;99170.89;1736782;80;21244;-84
2022/05/23 11:37:09;;;;;;;4.03;1.62;;;;;;;19.60;34.11;99168.63;1729512;80;21161;-83
2022/05/23 11:40:18;;;;;;;2.92;1.50;;;;;;;19.46;33.25;99171.51;1707113;83;21488;-83
2022/05/23 11:43:27;;;;;;;6.67;1.70;;;;;;;19.31;33.04;99174.13;1706296;81;21213;-83
2022/05/23 11:46:39;;;;;;;5.75;1.60;;;;;;;19.21;34.23;99176.25;1742609;80;21161;-84
2022/05/23 11:49:49;;;;;;;4.65;1.55;;;;;;;19.17;34.02;99174.25;1723553;80;21129;-83
2022/05/23 11:53:15;;;;;;;4.67;1.87;;;;;;;19.05;33.33;99177.98;1742085;80;21228;-83
2022/05/23 11:56:41;;;;;;;5.55;2.02;;;;;;;18.92;33.06;99180.34;1742165;80;21754;-83
2022/05/23 11:59:53;;;;;;;6.60;1.55;;;;;;;18.76;34.03;99177.91;1744966;80;21773;-83
2022/05/23 12:03:20;;;;;;;5.40;1.95;;;;;;;18.72;34.31;99182.28;1730090;80;21631;-77
2022/05/23 12:06:37;;;;;;;3.62;1.70;;;;;;;18.71;35.53;99183.38;1743115;80;21166;-77
2022/05/23 12:09:44;;;;;;;6.58;1.60;;;;;;;18.68;35.51;99187.48;1743687;82;21193;-77
2022/05/23 12:12:59;;;;;;;2.27;1.40;;;;;;;18.60;35.27;99187.37;1701050;82;21542;-77
2022/05/23 12:16:07;;;;;;;3.27;1.70;;;;;;;18.50;35.86;99192.77;1691975;83;21183;-77
2022/05/23 12:19:50;;;;;;;6.42;1.80;;;;;;;18.39;36.19;99188.16;1682989;83;21628;-77
2022/05/23 12:23:17;;;;;;;7.22;1.90;;;;;;;18.35;37.49;99195.33;1705667;83;21229;-77
2022/05/23 12:26:32;;;;;;;3.00;1.50;;;;;;;18.29;37.72;99196.31;1713671;83;21209;-77
2022/05/23 12:29:45;;;;;;;5.05;2.35;;;;;;;18.21;38.17;99202.27;1715759;83;21209;-77
2022/05/23 12:32:53;;;;;;;7.72;3.02;;;;;;;18.08;38.91;99202.92;1704000;83;21272;-77
2022/05/23 12:36:08;;;;;;;8.65;2.83;;;;;;;17.99;39.52;99200.28;1734963;80;21651;-77
2022/05/23 12:40:03;;;;;;;6.33;3.02;;;;;;;17.92;40.04;99203.75;1738077;80;21546;-79
2022/05/23 12:43:41;;;;;;;9.43;3.27;;;;;;;17.80;40.72;99204.39;1740428;82;21196;-77
2022/05/23 12:47:01;;;;;;;5.62;2.92;;;;;;;17.67;41.34;99208.27;1727275;80;21264;-77
2022/05/23 12:50:22;;;;;;;;;;;;;;;17.66;41.20;99206.60;1749668;80;21165;-76
2022/05/23 12:54:01;;;;;;;5.75;2.85;;;;;;;17.71;41.02;99208.63;1741929;80;20624;-77
2022/05/23 12:57:34;;;;;;;5.12;2.58;;;;;;;17.75;41.26;99208.45;1727758;82;21153;-76
2022/05/23 13:00:43;;;;;;;8.58;3.58;;;;;;;17.79;41.10;99206.88;1701730;81;21152;-77
2022/05/23 13:04:19;;;;;;;9.63;4.05;;;;;;;17.79;41.80;99206.88;1699626;82;21220;-77
2022/05/23 13:07:50;;;;;;;8.83;4.33;;;;;;;17.71;41.83;99213.61;1711597;81;21338;-77
2022/05/23 13:11:17;;;;;;;13.08;4.83;;;;;;;17.65;42.65;99211.01;1705957;82;21196;-77
2022/05/23 13:14:23;;;;;;;11.78;3.87;;;;;;;17.62;43.99;99214.55;1734836;80;21212;-77
2022/05/23 13:17:50;;;;;;;8.50;4.65;;;;;;;17.57;44.12;99217.22;1732580;82;21177;-77
2022/05/23 13:27:58;;;;;;;11.90;4.28;;;;;;;17.05;44.33;99218.70;1711501;83;21243;-77
2022/05/23 13:31:06;;;;;;;7.80;3.37;;;;;;;16.94;44.42;99218.20;1741492;80;21149;-77
2022/05/23 13:34:11;;;;;;;7.08;4.28;;;;;;;16.85;44.44;99220.50;1741472;82;21885;-77
2022/05/23 13:37:17;;;;;;;12.13;4.83;;;;;;;16.81;44.64;99219.86;1722647;82;21810;-77
2022/05/23 13:40:26;;;;;;;8.08;5.10;;;;;;;16.78;45.34;99225.85;1741830;80;21173;-77
2022/05/23 13:43:40;;;;;;;9.50;5.62;;;;;;;16.75;45.51;99225.81;1749004;80;21209;-77
2022/05/23 13:46:48;;;;;;;12.10;5.55;;;;;;;16.69;45.61;99232.80;1739519;80;21248;-77
2022/05/23 13:50:05;;;;;;;9.65;5.37;;;;;;;16.65;45.82;99232.98;1735631;80;21706;-77
2022/05/23 13:53:16;;;;;;;12.45;5.75;;;;;;;16.66;46.14;99229.16;1738596;82;21208;-77
2022/05/23 13:56:22;;;;;;;16.05;6.28;;;;;;;16.69;46.04;99231.41;1746437;82;21142;-83
2022/05/23 13:59:34;;;;;;;11.57;5.33;;;;;;;16.72;46.26;99234.57;1741952;80;21177;-83
2022/05/23 14:02:44;;;;;;;12.03;6.87;;;;;;;16.78;46.50;99237.73;1744371;80;21137;-77
2022/05/23 14:05:54;;;;;;;10.65;5.65;;;;;;;16.77;45.55;99234.68;1739238;80;21157;-77
2022/05/23 14:09:09;;;;;;;8.53;4.75;;;;;;;16.79;44.80;99236.64;1737490;81;21157;-77
2022/05/23 14:12:15;;;;;;;13.38;4.25;;;;;;;16.78;44.95;99239.66;1710657;82;21215;-77
2022/05/23 14:15:21;;;;;;;6.83;4.20;;;;;;;16.79;45.39;99237.19;1716041;83;21746;-77
2022/05/23 14:18:26;;;;;;;10.50;3.85;;;;;;;16.82;45.33;99240.86;1710254;83;21180;-77
2022/05/23 14:21:43;;;;;;;7.58;3.67;;;;;;;16.84;44.68;99242.31;1746644;80;21619;-77
2022/05/23 14:24:51;;;;;;;9.25;4.37;;;;;;;16.81;44.85;99240.56;1745201;80;21141;-77
2022/05/23 14:28:00;;;;;;;;;;;;;;;16.81;44.77;99244.70;1740959;80;21173;-77
2022/05/23 14:31:09;;;;;;;9.08;3.55;;;;;;;16.76;45.10;99241.84;1741226;80;20248;-77
2022/05/23 14:34:16;;;;;;;5.17;2.75;;;;;;;16.67;45.73;99246.02;1710879;81;21181;-77
2022/05/23 14:37:27;;;;;;;6.00;2.77;;;;;;;16.58;45.98;99246.92;1695345;83;21275;-77
2022/05/23 14:40:48;;;;;;;6.50;2.70;;;;;;;16.50;46.18;99250.88;1684964;83;21213;-77
2022/05/23 14:43:55;;;;;;;8.75;3.02;;;;;;;16.40;46.12;99252.56;1713434;81;21737;-77
2022/05/23 14:47:26;;;;;;;8.70;2.67;;;;;;;16.32;45.56;99250.98;1722198;80;21769;-77
2022/05/23 14:50:27;;;;;;;10.98;3.10;;;;;;;16.27;46.25;99259.15;1718648;82;21220;-78
2022/05/23 14:57:16;;;;;;;8.40;2.70;;;;;;;16.18;46.76;99264.17;1746020;82;21192;-77
2022/05/23 15:00:42;;;;;;;16.82;2.77;;;;;;;16.15;47.16;99267.97;1728021;81;21132;-77
2022/05/23 15:03:48;;;;;;;8.00;2.22;;;;;;;16.13;47.02;99264.59;1735261;82;21223;-77
2022/05/23 15:06:54;;;;;;;5.03;2.35;;;;;;;16.10;46.96;99268.14;1741413;82;21746;-77
2022/05/23 15:10:01;;;;;;;6.12;2.20;;;;;;;16.13;47.12;99268.73;1741614;82;21737;-77
2022/05/23 15:13:08;;;;;;;6.92;2.62;;;;;;;16.17;46.71;99275.45;1740148;82;21205;-77
2022/05/23 15:16:14;;;;;;;4.45;2.30;;;;;;;16.18;46.86;99278.51;1745851;82;21784;-78
2022/05/23 15:19:21;;;;;;;6.22;3.00;;;;;;;16.21;47.20;99282.18;1724008;82;21165;-77
2022/05/23 15:22:32;;;;;;;4.05;2.33;;;;;;;16.22;47.38;99284.69;1736069;82;21239;-77
2022/05/23 15:25:38;;;;;;;20.92;3.50;;;;;;;16.22;47.64;99279.17;1737408;81;21638;-77
2022/05/23 15:28:44;;;;;;;5.83;2.90;;;;;;;16.21;48.10;99280.80;1731802;81;21158;-77
2022/05/23 15:31:55;;;;;;;6.58;3.10;;;;;;;16.19;48.64;99278.30;1752636;81;21715;-77
2022/05/23 15:35:00;;;;;;;8.25;3.40;;;;;;;16.18;49.16;99279.89;1747375;82;21172;-77
2022/05/23 15:38:06;;;;;;;6.72;3.60;;;;;;;16.17;49.66;99280.97;1729527;82;21816;-77
2022/05/23 15:41:13;;;;;;;6.67;3.98;;;;;;;16.12;49.80;99281.69;1729317;82;21180;-77
2022/05/23 15:44:22;;;;;;;10.00;4.25;;;;;;;16.07;49.83;99282.94;1720008;83;21235;-77
2022/05/23 15:47:23;;;;;;;9.05;4.40;;;;;;;16.02;50.07;99288.33;1730202;82;21259;-77
2022/05/23 15:50:30;;;;;;;17.82;5.70;;;;;;;15.96;50.35;99288.73;1743187;81;21163;-77
2022/05/23 15:53:35;;;;;;;12.40;4.92;;;;;;;15.92;50.81;99287.52;1734178;82;21172;-77
2022/05/23 15:56:41;;;;;;;15.50;4.87;;;;;;;15.87;50.93;99288.77;1736096;80;21498;-77
2022/05/23 15:59:49;;;;;;;10.10;4.05;;;;;;;15.82;50.52;99291.39;1746497;80;21706;-77
2022/05/23 16:02:56;;;;;;;10.95;3.35;;;;;;;15.77;49.41;99287.13;1739219;80;21748;-77
2022/05/23 16:06:02;;;;;;;8.18;3.80;;;;;;;15.73;49.56;99290.05;1741163;80;21232;-76
2022/05/23 16:09:07;;;;;;;9.03;3.50;;;;;;;15.69;49.33;99297.10;1733476;82;21224;-77
2022/05/23 16:12:14;;;;;;;9.25;3.30;;;;;;;15.64;49.49;99291.45;1742920;81;21231;-77